Time;durP1;ratioP1;P1;durP2;ratioP2;P2;SDS_P1;SDS_P2;PMS_P1;PMS_P2;Temp;Humidity;BMP_temperature;BMP_pressure;BME280_temperature;BME280_humidity;BME280_pressure;Samples;Min_cycle;Max_cycle;Signal;HPM_P1;HPM_P2
2020/12/15 00:00:50;;;;;;;9.53;6.20;;;10.80;99.90;;;;;;4994794;28;20197;-90
2020/12/15 00:03:16;;;;;;;10.40;6.63;;;10.80;99.90;;;;;;4994352;28;20215;-88
2020/12/15 00:05:42;;;;;;;8.00;6.00;;;10.80;99.90;;;;;;4994282;28;20207;-91
2020/12/15 00:08:09;;;;;;;7.27;5.70;;;10.80;99.90;;;;;;4995217;28;20216;-90
2020/12/15 00:10:37;;;;;;;9.33;5.87;;;10.80;99.90;;;;;;4995126;28;20220;-90
2020/12/15 00:13:03;;;;;;;7.83;5.87;;;10.70;99.90;;;;;;4977758;28;20644;-92
2020/12/15 00:15:30;;;;;;;8.17;5.73;;;10.70;99.90;;;;;;4994370;28;20218;-90
2020/12/15 00:17:56;;;;;;;7.07;6.07;;;10.80;99.90;;;;;;4994607;28;20250;-90
2020/12/15 00:20:23;;;;;;;6.93;5.63;;;10.80;99.90;;;;;;4995144;28;20215;-90
2020/12/15 00:22:49;;;;;;;8.80;5.67;;;10.80;99.90;;;;;;4994855;28;20216;-91
2020/12/15 00:25:16;;;;;;;9.30;6.50;;;10.90;99.90;;;;;;4994543;28;20205;-90
2020/12/15 00:27:46;;;;;;;8.77;6.53;;;10.90;99.90;;;;;;4994225;28;20228;-91
2020/12/15 00:30:12;;;;;;;9.47;5.83;;;10.90;99.90;;;;;;4994706;28;20591;-88
2020/12/15 00:32:39;;;;;;;6.97;5.87;;;11.00;99.90;;;;;;4994649;28;20197;-90
2020/12/15 00:35:05;;;;;;;7.70;6.43;;;11.00;99.90;;;;;;4994961;28;20220;-90
2020/12/15 00:37:33;;;;;;;9.07;6.33;;;11.00;99.90;;;;;;4994466;28;20242;-88
2020/12/15 00:39:59;;;;;;;8.90;6.50;;;10.90;99.90;;;;;;4994213;28;20204;-90
2020/12/15 00:42:26;;;;;;;9.33;6.47;;;11.00;99.90;;;;;;4995873;28;20192;-91
2020/12/15 00:44:53;;;;;;;9.80;6.87;;;10.80;99.90;;;;;;4998148;28;20196;-89
2020/12/15 00:47:20;;;;;;;12.10;6.97;;;10.80;99.90;;;;;;4997949;28;20236;-90
2020/12/15 00:49:46;;;;;;;8.00;6.90;;;10.90;99.90;;;;;;4998140;28;20209;-91
2020/12/15 00:52:12;;;;;;;7.50;6.27;;;11.00;99.90;;;;;;4997742;28;20227;-91
2020/12/15 00:54:39;;;;;;;9.17;7.07;;;10.90;99.90;;;;;;4998037;28;20197;-91
2020/12/15 00:57:05;;;;;;;9.73;6.93;;;10.90;99.90;;;;;;4998218;28;20698;-90
2020/12/15 00:59:32;;;;;;;7.40;6.10;;;11.00;99.90;;;;;;4997941;28;20208;-91
2020/12/15 01:01:59;;;;;;;10.07;6.93;;;11.00;99.90;;;;;;4998226;28;20231;-91
2020/12/15 01:04:25;;;;;;;9.03;6.70;;;10.90;99.90;;;;;;4997241;28;20197;-91
2020/12/15 01:06:52;;;;;;;9.57;6.47;;;10.90;99.90;;;;;;4997470;28;20225;-90
2020/12/15 01:09:19;;;;;;;8.33;6.60;;;10.90;99.90;;;;;;4997332;28;20193;-91
2020/12/15 01:11:45;;;;;;;7.30;6.23;;;11.00;99.90;;;;;;4997536;28;20247;-91
2020/12/15 01:14:11;;;;;;;10.43;6.37;;;10.90;99.90;;;;;;4997586;28;20212;-91
2020/12/15 01:16:39;;;;;;;8.00;6.07;;;10.90;99.90;;;;;;4997556;28;20594;-88
2020/12/15 01:19:06;;;;;;;8.23;5.47;;;11.00;99.90;;;;;;4997413;28;20244;-92
2020/12/15 01:21:33;;;;;;;6.83;5.80;;;11.00;99.90;;;;;;4998004;28;20222;-91
2020/12/15 01:23:59;;;;;;;6.67;5.17;;;11.00;99.90;;;;;;4997226;28;20238;-91
2020/12/15 01:26:26;;;;;;;7.90;5.30;;;11.00;99.90;;;;;;4997071;28;20227;-90
2020/12/15 01:28:53;;;;;;;6.30;5.20;;;11.00;99.90;;;;;;4997062;28;20197;-90
2020/12/15 01:31:24;;;;;;;10.93;5.63;;;11.00;99.90;;;;;;4997235;28;20235;-90
2020/12/15 01:33:50;;;;;;;5.23;4.67;;;11.10;99.90;;;;;;4997398;28;20208;-90
2020/12/15 01:36:17;;;;;;;6.23;4.90;;;11.00;99.90;;;;;;4997100;28;20232;-90
2020/12/15 01:38:44;;;;;;;6.47;4.50;;;11.00;99.90;;;;;;4997148;28;20207;-91
2020/12/15 01:41:12;;;;;;;6.47;5.27;;;11.00;99.90;;;;;;4996942;28;20208;-90
2020/12/15 01:43:40;;;;;;;6.23;4.80;;;11.10;99.90;;;;;;4997793;28;20558;-90
2020/12/15 01:46:06;;;;;;;8.03;4.70;;;11.00;99.90;;;;;;4996837;28;20228;-89
2020/12/15 01:48:32;;;;;;;5.37;4.87;;;11.10;99.90;;;;;;4997127;28;20209;-89
2020/12/15 01:50:58;;;;;;;4.60;4.20;;;11.10;99.90;;;;;;4997008;28;20566;-91
2020/12/15 01:53:26;;;;;;;6.73;4.20;;;11.10;99.90;;;;;;4995824;28;20606;-91
2020/12/15 01:55:52;;;;;;;4.90;4.50;;;11.10;99.90;;;;;;4980224;28;20233;-94
2020/12/15 01:58:19;;;;;;;5.80;4.20;;;11.00;99.90;;;;;;4997336;28;20213;-95
2020/12/15 02:00:45;;;;;;;4.67;4.27;;;11.10;99.90;;;;;;4997272;28;20205;-94
2020/12/15 02:03:11;;;;;;;6.87;4.10;;;11.20;99.90;;;;;;4979518;28;20204;-94
2020/12/15 02:05:37;;;;;;;6.13;4.60;;;11.10;99.90;;;;;;4996568;28;20205;-95
2020/12/15 02:08:04;;;;;;;5.43;4.10;;;11.00;99.90;;;;;;4996961;28;20208;-94
2020/12/15 02:10:31;;;;;;;5.13;4.30;;;11.10;99.90;;;;;;4997147;28;20212;-93
2020/12/15 02:12:58;;;;;;;6.57;4.57;;;11.10;99.90;;;;;;4996382;28;20272;-95
2020/12/15 02:15:24;;;;;;;4.37;3.90;;;11.10;99.90;;;;;;4996643;28;20190;-92
2020/12/15 02:17:50;;;;;;;7.90;4.47;;;11.00;99.90;;;;;;4978629;28;20248;-91
2020/12/15 02:20:17;;;;;;;4.33;3.93;;;11.00;99.90;;;;;;4979113;28;20218;-91
2020/12/15 02:22:44;;;;;;;4.33;3.90;;;10.90;99.90;;;;;;4996281;28;20211;-94
2020/12/15 02:25:10;;;;;;;4.53;4.20;;;11.00;99.90;;;;;;4997083;28;20240;-90
2020/12/15 02:27:37;;;;;;;4.10;3.70;;;11.00;99.90;;;;;;4996199;28;20590;-90
2020/12/15 02:30:05;;;;;;;5.03;4.20;;;11.00;99.90;;;;;;4996067;28;20663;-93
2020/12/15 02:32:33;;;;;;;4.87;4.37;;;11.00;99.90;;;;;;4996308;28;20236;-91
2020/12/15 02:34:59;;;;;;;4.40;4.00;;;11.00;99.90;;;;;;4996321;28;20212;-94
2020/12/15 02:37:26;;;;;;;5.37;3.73;;;11.10;99.90;;;;;;4996047;28;20312;-91
2020/12/15 02:39:57;;;;;;;5.23;4.40;;;11.00;99.90;;;;;;4996080;28;20207;-94
2020/12/15 02:42:24;;;;;;;4.17;3.77;;;11.00;99.90;;;;;;4978871;28;20216;-95
2020/12/15 02:44:50;;;;;;;5.00;4.50;;;11.10;99.90;;;;;;4978078;28;20903;-92
2020/12/15 02:47:16;;;;;;;4.40;4.00;;;11.00;99.90;;;;;;4996138;28;20234;-94
2020/12/15 02:49:42;;;;;;;4.50;4.10;;;11.00;99.90;;;;;;4996197;28;20197;-93
2020/12/15 02:52:09;;;;;;;4.73;4.27;;;11.00;99.90;;;;;;4978185;28;20232;-93
2020/12/15 02:54:35;;;;;;;7.73;4.30;;;11.00;99.90;;;;;;4995852;28;20189;-94
2020/12/15 02:57:02;;;;;;;4.97;4.20;;;11.10;99.90;;;;;;4995699;28;20231;-95
2020/12/15 02:59:29;;;;;;;7.40;4.80;;;11.10;99.90;;;;;;4996186;28;20207;-94
2020/12/15 03:01:55;;;;;;;4.80;4.33;;;11.10;99.90;;;;;;4995411;28;20674;-95
2020/12/15 03:04:21;;;;;;;4.77;4.20;;;11.10;99.90;;;;;;4995351;28;20205;-95
2020/12/15 03:06:48;;;;;;;5.80;4.67;;;11.10;99.90;;;;;;4994838;28;20228;-95
2020/12/15 03:09:15;;;;;;;6.10;4.40;;;11.10;99.90;;;;;;4995218;28;20205;-95
2020/12/15 03:11:41;;;;;;;4.87;4.47;;;11.10;99.90;;;;;;4995335;28;20680;-94
2020/12/15 03:14:09;;;;;;;4.77;4.33;;;11.00;99.90;;;;;;4995545;28;20208;-95
2020/12/15 03:16:35;;;;;;;5.90;5.40;;;11.00;99.90;;;;;;4994781;28;20435;-93
2020/12/15 03:19:02;;;;;;;8.10;4.87;;;11.00;99.90;;;;;;4977749;28;20726;-95
2020/12/15 03:21:30;;;;;;;5.10;4.70;;;11.00;99.90;;;;;;4995161;28;20208;-93
2020/12/15 03:23:57;;;;;;;7.40;4.90;;;11.10;99.90;;;;;;4996004;28;20211;-94
2020/12/15 03:26:24;;;;;;;5.27;4.50;;;11.00;99.90;;;;;;4995354;28;20263;-94
2020/12/15 03:28:50;;;;;;;5.03;4.60;;;11.00;99.90;;;;;;4995187;28;20203;-96
2020/12/15 03:31:17;;;;;;;4.70;4.33;;;11.00;99.90;;;;;;4995329;28;20229;-95
2020/12/15 03:33:45;;;;;;;6.33;5.07;;;11.10;99.90;;;;;;4994866;28;20679;-94
2020/12/15 03:36:11;;;;;;;6.57;4.77;;;11.00;99.90;;;;;;4995030;28;20242;-93
2020/12/15 03:38:37;;;;;;;8.43;4.83;;;11.10;99.90;;;;;;4995352;28;20602;-92
2020/12/15 03:41:04;;;;;;;6.50;4.73;;;11.10;99.90;;;;;;4994659;28;20216;-94
2020/12/15 03:43:30;;;;;;;6.37;4.80;;;11.10;99.90;;;;;;4994892;28;20205;-95
2020/12/15 03:45:56;;;;;;;5.30;4.80;;;11.10;99.90;;;;;;4996426;28;20232;-95
2020/12/15 03:48:23;;;;;;;6.13;5.43;;;11.10;99.90;;;;;;4995970;28;20207;-95
2020/12/15 03:50:50;;;;;;;5.07;4.63;;;11.20;99.90;;;;;;4996603;28;20233;-92
2020/12/15 03:53:16;;;;;;;6.53;4.73;;;11.10;99.90;;;;;;4998992;28;20193;-91
2020/12/15 03:55:47;;;;;;;5.30;4.80;;;11.00;99.90;;;;;;4995348;28;20209;-91
2020/12/15 03:58:14;;;;;;;5.70;5.20;;;11.10;99.90;;;;;;4995613;28;20208;-91
2020/12/15 04:00:40;;;;;;;7.73;5.00;;;11.10;99.90;;;;;;4995140;28;20263;-89
2020/12/15 04:03:07;;;;;;;6.40;5.23;;;11.10;99.90;;;;;;4995644;28;20209;-92
2020/12/15 04:05:34;;;;;;;5.27;4.53;;;11.20;99.90;;;;;;4995157;28;20212;-86
2020/12/15 04:08:00;;;;;;;5.70;4.93;;;11.20;99.90;;;;;;4994660;28;20209;-88
2020/12/15 04:10:27;;;;;;;5.17;4.50;;;11.20;99.90;;;;;;4994455;28;20219;-88
2020/12/15 04:12:53;;;;;;;5.40;4.90;;;11.10;99.90;;;;;;4994561;28;20235;-89
2020/12/15 04:15:20;;;;;;;5.90;5.27;;;11.10;99.90;;;;;;4978112;28;20211;-88
2020/12/15 04:17:46;;;;;;;5.70;4.83;;;11.20;99.90;;;;;;4996064;28;20236;-89
2020/12/15 04:20:13;;;;;;;5.80;5.17;;;11.20;99.90;;;;;;4998301;28;20210;-89
2020/12/15 04:22:40;;;;;;;7.07;4.70;;;11.20;99.90;;;;;;4998759;28;20222;-89
2020/12/15 04:25:07;;;;;;;6.17;4.90;;;11.20;99.90;;;;;;4998333;28;20215;-90
2020/12/15 04:27:33;;;;;;;5.60;4.97;;;11.10;99.90;;;;;;4998149;28;20661;-89
2020/12/15 04:30:00;;;;;;;6.87;5.27;;;11.20;99.90;;;;;;4998131;28;20200;-89
2020/12/15 04:32:26;;;;;;;5.33;4.83;;;11.10;99.90;;;;;;4998518;28;20247;-88
2020/12/15 04:34:53;;;;;;;5.17;4.77;;;11.00;99.90;;;;;;4998942;28;20220;-89
2020/12/15 04:37:19;;;;;;;7.47;5.97;;;11.10;99.90;;;;;;4998044;28;20228;-89
2020/12/15 04:39:46;;;;;;;5.77;5.13;;;11.00;99.90;;;;;;4998823;28;20216;-92
2020/12/15 04:42:14;;;;;;;7.73;5.60;;;11.00;99.90;;;;;;4998545;28;20247;-91
2020/12/15 04:44:41;;;;;;;7.53;5.57;;;11.00;99.90;;;;;;4998689;28;20681;-91
2020/12/15 04:47:12;;;;;;;6.83;5.60;;;10.90;99.90;;;;;;4997888;28;20230;-93
2020/12/15 04:49:52;;;;;;;5.73;5.00;;;10.90;99.90;;;;;;4998505;28;20663;-89
2020/12/15 04:52:23;;;;;;;7.00;5.63;;;10.90;99.90;;;;;;4998121;28;20758;-91
2020/12/15 04:54:52;;;;;;;9.40;5.37;;;10.90;99.90;;;;;;4998029;28;20202;-94
2020/12/15 04:57:22;;;;;;;7.37;6.00;;;10.90;99.90;;;;;;4997821;28;20291;-92
2020/12/15 04:59:50;;;;;;;7.43;6.23;;;11.00;99.90;;;;;;4998289;28;20211;-94
2020/12/15 05:02:18;;;;;;;12.53;6.17;;;10.90;99.90;;;;;;4997639;28;20737;-92
2020/12/15 05:04:45;;;;;;;7.00;5.53;;;10.80;99.90;;;;;;4997828;28;20641;-93
2020/12/15 05:07:12;;;;;;;6.57;5.90;;;10.90;99.90;;;;;;4998011;28;20225;-91
2020/12/15 05:09:39;;;;;;;6.97;6.03;;;10.80;99.90;;;;;;4998047;28;20215;-91
2020/12/15 05:12:06;;;;;;;6.20;5.40;;;10.80;99.90;;;;;;4998432;28;20233;-96
2020/12/15 05:14:33;;;;;;;6.47;5.90;;;10.70;99.90;;;;;;4981062;28;20209;-92
2020/12/15 05:16:59;;;;;;;6.50;5.90;;;10.70;99.90;;;;;;4997504;28;20310;-92
2020/12/15 05:19:26;;;;;;;6.23;5.43;;;10.70;99.90;;;;;;4997764;28;20204;-96
2020/12/15 05:21:54;;;;;;;6.20;5.60;;;10.70;99.90;;;;;;4998196;28;20207;-95
2020/12/15 05:24:26;;;;;;;6.33;5.60;;;10.70;99.90;;;;;;4998614;28;20219;-95
2020/12/15 05:26:53;;;;;;;8.00;6.40;;;10.70;99.90;;;;;;4997267;28;20240;-95
2020/12/15 05:29:22;;;;;;;7.73;6.17;;;10.80;99.90;;;;;;4997303;28;20200;-95
2020/12/15 05:31:49;;;;;;;6.03;5.53;;;10.80;99.90;;;;;;4997486;28;20232;-95
2020/12/15 05:34:22;;;;;;;6.80;5.50;;;10.70;99.90;;;;;;4998867;28;20209;-96
2020/12/15 05:36:56;;;;;;;5.70;5.30;;;10.80;99.90;;;;;;4998218;28;20229;-95
2020/12/15 05:39:24;;;;;;;7.10;6.40;;;10.90;99.90;;;;;;4998185;28;20208;-95
2020/12/15 05:41:59;;;;;;;6.67;6.07;;;10.80;99.90;;;;;;4998280;28;20199;-96
2020/12/15 05:44:28;;;;;;;6.70;6.10;;;10.80;99.90;;;;;;4999402;28;20273;-96
2020/12/15 05:47:00;;;;;;;7.50;6.17;;;10.80;99.90;;;;;;4999980;28;20593;-92
2020/12/15 05:49:28;;;;;;;6.63;6.03;;;10.80;99.90;;;;;;4997253;28;20691;-91
2020/12/15 05:51:55;;;;;;;6.73;5.90;;;10.70;99.90;;;;;;4980453;28;20252;-94
2020/12/15 05:54:21;;;;;;;7.50;6.13;;;10.70;99.90;;;;;;4998659;28;20668;-94
2020/12/15 05:56:59;;;;;;;7.40;5.77;;;10.70;99.90;;;;;;4998696;28;20234;-95
2020/12/15 05:59:25;;;;;;;9.97;6.40;;;10.70;99.90;;;;;;4998434;28;20730;-89
2020/12/15 06:01:54;;;;;;;6.13;5.53;;;10.70;99.90;;;;;;4998842;28;20266;-92
2020/12/15 06:04:21;;;;;;;8.80;6.07;;;10.60;99.90;;;;;;4999116;28;20217;-93
2020/12/15 06:06:48;;;;;;;5.97;5.47;;;10.70;99.90;;;;;;5003597;28;20696;-92
2020/12/15 06:09:16;;;;;;;7.50;6.13;;;10.70;99.90;;;;;;5005190;28;20666;-95
2020/12/15 06:11:44;;;;;;;6.77;5.77;;;10.80;99.90;;;;;;5005152;28;20228;-94
2020/12/15 06:14:12;;;;;;;10.13;7.10;;;10.70;99.90;;;;;;5000527;28;20201;-94
2020/12/15 06:16:39;;;;;;;6.37;5.77;;;10.70;99.90;;;;;;4997829;28;20225;-91
2020/12/15 06:19:11;;;;;;;8.67;5.77;;;10.70;99.90;;;;;;4998446;28;20302;-95
2020/12/15 06:21:39;;;;;;;7.80;5.97;;;10.90;99.90;;;;;;5006393;28;20199;-90
2020/12/15 06:24:06;;;;;;;8.15;7.22;;;10.90;99.90;;;;;;5002093;28;20430;-94
2020/12/15 06:26:34;;;;;;;7.00;6.40;;;10.90;99.90;;;;;;4997144;28;20230;-92
2020/12/15 06:29:03;;;;;;;7.13;5.67;;;10.90;99.90;;;;;;4997420;28;20209;-93
2020/12/15 06:31:30;;;;;;;6.63;5.53;;;10.90;99.90;;;;;;4996776;28;20233;-93
2020/12/15 06:33:58;;;;;;;7.90;5.30;;;10.90;99.90;;;;;;4997341;28;20213;-92
2020/12/15 06:36:27;;;;;;;7.37;5.50;;;11.00;99.90;;;;;;4998386;28;20367;-93
2020/12/15 06:38:54;;;;;;;8.77;5.63;;;11.00;99.90;;;;;;4999243;28;20197;-94
2020/12/15 06:41:23;;;;;;;6.83;5.40;;;11.10;99.90;;;;;;4995329;28;20224;-90
2020/12/15 06:43:49;;;;;;;7.57;6.80;;;10.90;99.90;;;;;;4980549;28;20208;-90
2020/12/15 06:46:16;;;;;;;8.43;5.70;;;10.90;99.90;;;;;;4997631;28;20229;-94
2020/12/15 06:48:45;;;;;;;6.90;5.27;;;10.90;99.90;;;;;;4996064;28;20214;-93
2020/12/15 06:51:12;;;;;;;6.63;5.40;;;10.80;99.90;;;;;;4995655;28;20216;-93
2020/12/15 06:53:40;;;;;;;10.23;7.03;;;10.90;99.90;;;;;;4995292;28;20442;-93
2020/12/15 06:56:07;;;;;;;6.00;5.50;;;10.90;99.90;;;;;;4995749;28;20633;-93
2020/12/15 06:58:34;;;;;;;8.40;6.07;;;11.00;99.90;;;;;;4995511;28;20217;-93
2020/12/15 07:01:02;;;;;;;6.13;5.40;;;11.10;99.90;;;;;;4996096;28;20252;-94
2020/12/15 07:03:34;;;;;;;5.57;5.00;;;11.10;99.90;;;;;;4995685;28;20740;-92
2020/12/15 07:06:09;;;;;;;7.33;5.03;;;11.10;99.90;;;;;;4995144;28;20250;-92
2020/12/15 07:08:36;;;;;;;5.27;4.77;;;11.10;99.90;;;;;;4995725;28;20209;-92
2020/12/15 07:11:03;;;;;;;11.63;5.37;;;11.20;99.90;;;;;;4978009;28;20210;-93
2020/12/15 07:13:29;;;;;;;6.73;4.80;;;11.10;99.90;;;;;;4995207;28;20201;-92
2020/12/15 07:15:56;;;;;;;7.47;4.90;;;11.20;99.90;;;;;;4978050;28;20862;-91
2020/12/15 07:18:22;;;;;;;9.40;5.30;;;11.20;99.90;;;;;;4995241;28;20301;-92
2020/12/15 07:20:49;;;;;;;4.87;4.47;;;11.20;99.90;;;;;;4995723;28;20276;-94
2020/12/15 07:23:17;;;;;;;5.63;4.87;;;11.10;99.90;;;;;;4995067;28;20215;-95
2020/12/15 07:25:44;;;;;;;5.30;4.80;;;11.10;99.90;;;;;;4995675;28;20280;-93
2020/12/15 07:28:12;;;;;;;5.53;5.03;;;11.10;99.90;;;;;;4995050;28;20212;-91
2020/12/15 07:30:39;;;;;;;6.93;4.50;;;11.20;99.90;;;;;;4995232;28;20645;-92
2020/12/15 07:33:05;;;;;;;6.30;4.90;;;11.10;99.90;;;;;;4995417;28;20224;-93
2020/12/15 07:35:34;;;;;;;8.97;4.93;;;11.20;99.90;;;;;;4994942;28;20204;-90
2020/12/15 07:38:03;;;;;;;5.00;4.50;;;11.20;99.90;;;;;;4995884;28;20626;-90
2020/12/15 07:40:30;;;;;;;5.00;4.60;;;11.10;99.90;;;;;;4995211;28;20633;-90
2020/12/15 07:42:58;;;;;;;4.73;4.27;;;11.20;99.90;;;;;;4994921;28;20303;-89
2020/12/15 07:45:27;;;;;;;5.10;4.60;;;11.20;99.90;;;;;;4994937;28;20635;-90
2020/12/15 07:47:55;;;;;;;5.00;4.60;;;11.30;99.90;;;;;;4977440;28;20592;-88
2020/12/15 07:50:26;;;;;;;5.00;4.50;;;11.20;99.90;;;;;;4994960;28;20201;-88
2020/12/15 07:52:53;;;;;;;6.67;4.73;;;11.30;99.90;;;;;;4994501;28;20220;-87
2020/12/15 07:55:21;;;;;;;4.80;4.40;;;11.30;99.90;;;;;;4995167;28;20215;-87
2020/12/15 07:57:47;;;;;;;5.27;4.57;;;11.20;99.90;;;;;;4994770;28;20225;-87
2020/12/15 08:00:15;;;;;;;4.60;4.20;;;11.20;99.90;;;;;;4994583;28;20646;-87
2020/12/15 08:02:43;;;;;;;4.80;4.40;;;11.20;99.90;;;;;;4994559;28;20198;-87
2020/12/15 08:05:15;;;;;;;4.93;4.43;;;11.30;99.90;;;;;;4994622;28;20687;-87
2020/12/15 08:07:49;;;;;;;5.23;4.83;;;11.40;99.90;;;;;;4994692;28;20626;-86
2020/12/15 08:10:17;;;;;;;5.37;4.87;;;11.40;99.90;;;;;;4994214;28;20190;-87
2020/12/15 08:12:44;;;;;;;5.63;5.07;;;11.30;99.90;;;;;;4995428;28;20624;-87
2020/12/15 08:15:13;;;;;;;7.70;4.83;;;11.40;99.90;;;;;;4994907;28;20201;-87
2020/12/15 08:17:44;;;;;;;5.20;4.63;;;11.30;99.90;;;;;;4994186;28;20240;-87
2020/12/15 08:20:11;;;;;;;5.80;5.30;;;11.40;99.90;;;;;;4994480;28;20197;-87
2020/12/15 08:22:39;;;;;;;5.27;4.30;;;11.30;99.90;;;;;;4995198;28;20206;-87
2020/12/15 08:25:08;;;;;;;4.90;4.40;;;11.40;99.90;;;;;;4995236;28;20637;-87
2020/12/15 08:27:35;;;;;;;6.13;5.40;;;11.40;99.90;;;;;;4994541;28;20447;-87
2020/12/15 08:30:13;;;;;;;4.50;4.10;;;11.40;99.90;;;;;;4994322;28;20292;-87
2020/12/15 08:32:43;;;;;;;9.67;4.47;;;11.50;99.90;;;;;;4994540;28;20222;-89
2020/12/15 08:35:11;;;;;;;8.43;5.00;;;11.50;99.90;;;;;;4994315;28;20692;-86
2020/12/15 08:37:38;;;;;;;5.87;5.30;;;11.40;99.90;;;;;;4977094;28;20587;-88
2020/12/15 08:40:07;;;;;;;7.03;5.60;;;11.50;99.90;;;;;;4994173;28;20206;-87
2020/12/15 08:42:34;;;;;;;6.47;4.63;;;11.40;99.90;;;;;;4994353;28;20288;-87
2020/12/15 08:45:11;;;;;;;5.80;5.20;;;11.40;99.90;;;;;;4994436;28;20218;-88
2020/12/15 08:47:43;;;;;;;9.93;5.33;;;11.50;99.90;;;;;;4977240;28;20234;-87
2020/12/15 08:50:12;;;;;;;8.67;5.27;;;11.50;99.90;;;;;;4994632;28;20206;-88
2020/12/15 08:52:39;;;;;;;6.00;5.37;;;11.40;99.90;;;;;;4993891;28;20226;-88
2020/12/15 08:55:05;;;;;;;6.53;5.83;;;11.30;99.90;;;;;;4993996;28;20196;-87
2020/12/15 08:57:31;;;;;;;8.23;5.77;;;11.30;99.90;;;;;;4994056;28;20230;-87
2020/12/15 09:00:09;;;;;;;7.47;5.87;;;11.30;99.90;;;;;;4994486;28;20659;-90
2020/12/15 09:02:35;;;;;;;10.10;6.53;;;11.30;99.90;;;;;;4977524;28;20566;-88
2020/12/15 09:05:06;;;;;;;9.33;5.80;;;11.30;99.90;;;;;;4997491;28;20348;-88
2020/12/15 09:07:33;;;;;;;6.70;6.00;;;11.30;99.90;;;;;;4998136;28;20229;-88
2020/12/15 09:10:09;;;;;;;8.77;6.10;;;11.30;99.90;;;;;;4997631;28;20199;-87
2020/12/15 09:12:36;;;;;;;8.43;6.33;;;11.30;99.90;;;;;;4997600;28;20275;-88
2020/12/15 09:15:03;;;;;;;10.90;6.90;;;11.20;99.90;;;;;;4997297;28;20213;-87
2020/12/15 09:17:29;;;;;;;12.70;6.63;;;11.30;99.90;;;;;;4997077;28;20661;-87
2020/12/15 09:19:55;;;;;;;13.07;5.77;;;11.30;99.90;;;;;;4997699;28;20265;-87
2020/12/15 09:22:23;;;;;;;9.67;6.30;;;11.30;99.90;;;;;;4997602;28;20197;-88
2020/12/15 09:24:50;;;;;;;11.13;6.37;;;11.30;99.90;;;;;;4997147;28;20220;-88
2020/12/15 09:27:19;;;;;;;6.57;5.97;;;11.30;99.90;;;;;;4996839;28;20684;-87
2020/12/15 09:29:45;;;;;;;11.33;6.17;;;11.30;99.90;;;;;;4997219;28;20541;-87
2020/12/15 09:32:11;;;;;;;10.13;6.70;;;11.40;99.90;;;;;;4997706;28;20239;-88
2020/12/15 09:34:38;;;;;;;27.50;8.73;;;11.40;99.90;;;;;;4997686;28;20196;-96
2020/12/15 09:37:05;;;;;;;6.50;5.73;;;11.40;99.90;;;;;;4979924;28;20613;-93
2020/12/15 09:39:32;;;;;;;8.20;5.97;;;11.30;99.90;;;;;;4979787;28;20205;-90
2020/12/15 09:42:00;;;;;;;6.10;5.50;;;11.20;99.90;;;;;;4997056;28;20260;-90
2020/12/15 09:44:26;;;;;;;9.63;5.63;;;11.20;99.90;;;;;;4996582;28;20264;-90
2020/12/15 09:46:53;;;;;;;6.80;6.17;;;11.20;99.90;;;;;;4997087;28;20237;-89
2020/12/15 09:49:19;;;;;;;7.30;5.70;;;11.20;99.90;;;;;;4996502;28;20197;-89
2020/12/15 09:51:45;;;;;;;8.57;6.27;;;11.30;99.90;;;;;;4996884;28;20220;-91
2020/12/15 09:54:12;;;;;;;9.43;5.53;;;11.20;99.90;;;;;;4997061;28;20599;-92
2020/12/15 09:56:43;;;;;;;12.10;6.43;;;11.20;99.90;;;;;;4979851;28;20229;-89
2020/12/15 09:59:11;;;;;;;7.53;5.93;;;11.20;99.90;;;;;;4996452;28;20268;-92
2020/12/15 10:01:39;;;;;;;10.70;6.20;;;11.30;99.90;;;;;;4996195;28;20291;-93
2020/12/15 10:04:06;;;;;;;7.90;6.83;;;11.40;99.90;;;;;;4996521;28;20190;-91
2020/12/15 10:06:32;;;;;;;9.07;6.93;;;11.30;99.90;;;;;;4991387;28;20228;-93
2020/12/15 10:08:59;;;;;;;8.30;7.50;;;11.20;99.90;;;;;;4990725;28;20664;-91
2020/12/15 10:11:26;;;;;;;8.13;7.33;;;11.20;99.90;;;;;;4995908;28;20711;-88
2020/12/15 10:13:52;;;;;;;7.73;6.73;;;11.20;99.90;;;;;;4996127;28;20259;-92
2020/12/15 10:16:20;;;;;;;7.50;6.60;;;11.10;99.90;;;;;;4977832;28;20232;-89
2020/12/15 10:18:46;;;;;;;8.93;6.50;;;11.20;99.90;;;;;;4995748;28;20241;-92
2020/12/15 10:21:16;;;;;;;8.50;7.13;;;11.30;99.90;;;;;;5008323;28;20201;-92
2020/12/15 10:23:42;;;;;;;10.10;7.23;;;11.20;99.90;;;;;;5009477;28;20216;-92
2020/12/15 10:26:09;;;;;;;8.40;7.03;;;11.10;99.90;;;;;;5013587;28;20289;-90
2020/12/15 10:28:36;;;;;;;9.67;7.23;;;11.20;99.90;;;;;;5004675;28;20201;-92
2020/12/15 10:31:03;;;;;;;12.77;7.60;;;11.20;99.90;;;;;;4995935;28;20255;-92
2020/12/15 10:33:30;;;;;;;9.77;8.60;;;11.20;99.90;;;;;;4995372;28;20303;-91
2020/12/15 10:35:57;;;;;;;9.20;7.87;;;11.30;99.90;;;;;;4994184;28;20248;-92
2020/12/15 10:38:23;;;;;;;14.00;8.80;;;11.30;99.90;;;;;;4959080;28;20295;-93
2020/12/15 10:40:52;;;;;;;12.30;8.00;;;11.30;99.90;;;;;;4976133;28;20234;-92
2020/12/15 10:43:18;;;;;;;11.57;8.37;;;11.30;99.90;;;;;;4976094;28;20206;-93
2020/12/15 10:45:44;;;;;;;14.60;9.40;;;11.30;99.90;;;;;;4983337;28;20198;-93
2020/12/15 10:48:11;;;;;;;17.10;9.17;;;11.30;99.90;;;;;;4995144;28;20659;-92
2020/12/15 10:50:39;;;;;;;12.77;8.77;;;11.20;99.90;;;;;;4995670;28;20204;-93
2020/12/15 10:53:08;;;;;;;16.23;8.93;;;11.30;99.90;;;;;;4995336;28;20233;-95
2020/12/15 10:55:35;;;;;;;13.63;9.10;;;11.30;99.90;;;;;;4995464;28;20221;-91
2020/12/15 10:58:01;;;;;;;15.73;9.40;;;11.20;99.90;;;;;;4994987;28;20238;-88
2020/12/15 11:00:28;;;;;;;12.47;9.20;;;11.30;99.90;;;;;;4994804;28;20193;-89
2020/12/15 11:02:54;;;;;;;16.87;9.90;;;11.20;99.90;;;;;;4995287;28;20232;-86
2020/12/15 11:05:20;;;;;;;15.60;9.77;;;11.30;99.90;;;;;;4994849;28;20279;-87
2020/12/15 11:07:48;;;;;;;19.30;10.83;;;11.20;99.90;;;;;;4978690;28;20248;-88
2020/12/15 11:10:14;;;;;;;17.00;11.13;;;11.30;99.90;;;;;;4975433;28;20580;-88
2020/12/15 11:12:41;;;;;;;16.37;10.57;;;11.40;99.90;;;;;;4974962;28;20241;-87
2020/12/15 11:15:07;;;;;;;12.63;11.33;;;11.40;99.90;;;;;;4975450;28;20289;-87
2020/12/15 11:17:34;;;;;;;17.53;11.87;;;11.40;99.90;;;;;;4974836;28;20257;-87
2020/12/15 11:20:00;;;;;;;20.97;12.10;;;11.40;99.90;;;;;;4975076;28;20206;-89
2020/12/15 11:22:27;;;;;;;16.57;11.53;;;11.50;99.90;;;;;;4975207;28;20195;-87
2020/12/15 11:24:54;;;;;;;14.43;11.90;;;11.40;99.90;;;;;;4975261;28;20193;-88
2020/12/15 11:27:20;;;;;;;12.27;10.97;;;11.50;99.90;;;;;;4974807;28;20313;-87
2020/12/15 11:29:47;;;;;;;15.37;11.70;;;11.60;99.90;;;;;;4975072;28;20217;-87
2020/12/15 11:32:14;;;;;;;15.00;12.13;;;11.60;99.90;;;;;;4974835;28;20234;-87
2020/12/15 11:34:40;;;;;;;28.80;13.53;;;11.70;99.90;;;;;;4975154;28;20247;-92
2020/12/15 11:37:09;;;;;;;29.87;13.90;;;11.70;99.90;;;;;;4985612;28;20233;-88
2020/12/15 11:39:36;;;;;;;19.10;13.33;;;11.70;99.90;;;;;;4994488;28;20287;-88
2020/12/15 11:42:07;;;;;;;15.13;12.30;;;11.80;99.90;;;;;;4994214;28;20191;-87
2020/12/15 11:44:34;;;;;;;16.70;12.20;;;11.80;99.90;;;;;;4976898;28;20282;-86
2020/12/15 11:47:01;;;;;;;14.30;11.87;;;11.80;99.90;;;;;;4994343;28;20249;-87
2020/12/15 11:49:27;;;;;;;15.60;11.67;;;11.80;99.90;;;;;;4994418;28;20190;-87
2020/12/15 11:51:54;;;;;;;14.53;12.33;;;11.90;99.90;;;;;;4994414;28;20277;-89
2020/12/15 11:54:20;;;;;;;13.73;12.17;;;12.00;99.90;;;;;;4977051;28;20214;-88
2020/12/15 11:56:47;;;;;;;17.80;12.70;;;12.00;99.90;;;;;;4981097;28;20245;-88
2020/12/15 11:59:14;;;;;;;13.60;12.17;;;12.00;99.90;;;;;;4976126;28;20217;-88
2020/12/15 12:01:41;;;;;;;20.23;12.60;;;12.00;99.90;;;;;;4974447;28;20222;-88
2020/12/15 12:04:07;;;;;;;18.43;13.07;;;11.90;99.90;;;;;;4974718;28;20206;-89
2020/12/15 12:06:34;;;;;;;14.13;11.80;;;11.70;99.90;;;;;;4980356;28;20681;-88
2020/12/15 12:09:01;;;;;;;13.57;11.67;;;11.50;99.90;;;;;;4994197;28;20235;-89
2020/12/15 12:11:27;;;;;;;12.90;10.47;;;11.60;99.90;;;;;;4994025;28;20284;-88
2020/12/15 12:13:54;;;;;;;14.53;11.00;;;11.80;99.90;;;;;;4993956;28;20555;-88
2020/12/15 12:16:21;;;;;;;16.00;10.30;;;12.00;99.90;;;;;;4994563;28;20234;-89
2020/12/15 12:18:48;;;;;;;13.60;10.27;;;12.00;99.90;;;;;;4993868;28;20240;-88
2020/12/15 12:21:14;;;;;;;17.50;11.47;;;12.10;99.90;;;;;;4993906;28;20269;-88
2020/12/15 12:23:41;;;;;;;14.80;9.83;;;12.10;99.90;;;;;;4993550;28;20209;-88
2020/12/15 12:26:08;;;;;;;13.20;9.77;;;12.20;99.90;;;;;;4994000;28;20231;-87
2020/12/15 12:28:35;;;;;;;14.00;10.63;;;12.10;99.90;;;;;;4993603;28;20253;-88
2020/12/15 12:31:02;;;;;;;11.80;9.23;;;12.10;99.90;;;;;;4993608;28;20218;-88
2020/12/15 12:33:29;;;;;;;15.30;10.27;;;12.10;99.90;;;;;;4993190;28;20686;-89
2020/12/15 12:35:55;;;;;;;11.50;10.30;;;12.10;99.90;;;;;;4992627;28;20696;-88
2020/12/15 12:38:22;;;;;;;12.50;10.67;;;12.30;99.90;;;;;;4975651;28;20527;-88
2020/12/15 12:40:48;;;;;;;12.67;9.73;;;12.20;99.90;;;;;;4977534;28;20274;-89
2020/12/15 12:43:16;;;;;;;22.93;12.90;;;12.00;99.90;;;;;;4960886;28;20659;-89